sensor_id;sensor_type;location;lat;lon;timestamp;pressure;altitude;pressure_sealevel;temperature
78225;BMP280;67498;53.650;10.090;2024-01-25T00:01:08;101707.47;;;7.39
78225;BMP280;67498;53.650;10.090;2024-01-25T00:03:33;101705.66;;;7.39
78225;BMP280;67498;53.650;10.090;2024-01-25T00:05:58;101704.97;;;7.42
78225;BMP280;67498;53.650;10.090;2024-01-25T00:08:23;101698.34;;;7.45
78225;BMP280;67498;53.650;10.090;2024-01-25T00:10:49;101685.25;;;7.41
78225;BMP280;67498;53.650;10.090;2024-01-25T00:13:14;101685.63;;;7.40
78225;BMP280;67498;53.650;10.090;2024-01-25T00:15:39;101682.66;;;7.41
78225;BMP280;67498;53.650;10.090;2024-01-25T00:18:04;101693.75;;;7.38
78225;BMP280;67498;53.650;10.090;2024-01-25T00:20:30;101693.03;;;7.38
78225;BMP280;67498;53.650;10.090;2024-01-25T00:22:55;101697.09;;;7.39
78225;BMP280;67498;53.650;10.090;2024-01-25T00:25:20;101697.81;;;7.36
78225;BMP280;67498;53.650;10.090;2024-01-25T00:27:46;101721.19;;;7.36
78225;BMP280;67498;53.650;10.090;2024-01-25T00:30:12;101711.13;;;7.34
78225;BMP280;67498;53.650;10.090;2024-01-25T00:32:38;101716.00;;;7.36
78225;BMP280;67498;53.650;10.090;2024-01-25T00:35:03;101721.50;;;7.34
78225;BMP280;67498;53.650;10.090;2024-01-25T00:37:29;101717.41;;;7.33
78225;BMP280;67498;53.650;10.090;2024-01-25T00:39:54;101730.41;;;7.33
78225;BMP280;67498;53.650;10.090;2024-01-25T00:42:22;101734.50;;;7.34
78225;BMP280;67498;53.650;10.090;2024-01-25T00:44:48;101733.75;;;7.34
78225;BMP280;67498;53.650;10.090;2024-01-25T00:47:14;101729.72;;;7.36
78225;BMP280;67498;53.650;10.090;2024-01-25T00:49:39;101725.28;;;7.37
78225;BMP280;67498;53.650;10.090;2024-01-25T00:52:05;101727.50;;;7.38
78225;BMP280;67498;53.650;10.090;2024-01-25T00:54:30;101724.53;;;7.36
78225;BMP280;67498;53.650;10.090;2024-01-25T00:56:56;101730.81;;;7.35
78225;BMP280;67498;53.650;10.090;2024-01-25T00:59:22;101727.06;;;7.33
78225;BMP280;67498;53.650;10.090;2024-01-25T01:01:48;101719.94;;;7.29
78225;BMP280;67498;53.650;10.090;2024-01-25T01:04:14;101725.13;;;7.29
78225;BMP280;67498;53.650;10.090;2024-01-25T01:06:39;101726.22;;;7.28
78225;BMP280;67498;53.650;10.090;2024-01-25T01:09:05;101731.75;;;7.27
78225;BMP280;67498;53.650;10.090;2024-01-25T01:11:30;101749.56;;;7.25
78225;BMP280;67498;53.650;10.090;2024-01-25T01:13:55;101745.03;;;7.22
78225;BMP280;67498;53.650;10.090;2024-01-25T01:16:21;101742.00;;;7.20
78225;BMP280;67498;53.650;10.090;2024-01-25T01:18:46;101773.59;;;7.22
78225;BMP280;67498;53.650;10.090;2024-01-25T01:21:11;101749.91;;;7.23
78225;BMP280;67498;53.650;10.090;2024-01-25T01:23:37;101746.97;;;7.25
78225;BMP280;67498;53.650;10.090;2024-01-25T01:26:03;101749.19;;;7.26
78225;BMP280;67498;53.650;10.090;2024-01-25T01:28:29;101747.34;;;7.27
78225;BMP280;67498;53.650;10.090;2024-01-25T01:30:54;101754.06;;;7.28
78225;BMP280;67498;53.650;10.090;2024-01-25T01:33:19;101754.81;;;7.28
78225;BMP280;67498;53.650;10.090;2024-01-25T01:35:45;101748.78;;;7.24
78225;BMP280;67498;53.650;10.090;2024-01-25T01:38:10;101772.31;;;7.32
78225;BMP280;67498;53.650;10.090;2024-01-25T01:40:35;101749.34;;;7.34
78225;BMP280;67498;53.650;10.090;2024-01-25T01:43:01;101761.63;;;7.37
78225;BMP280;67498;53.650;10.090;2024-01-25T01:45:27;101770.22;;;7.37
78225;BMP280;67498;53.650;10.090;2024-01-25T01:47:52;101778.75;;;7.38
78225;BMP280;67498;53.650;10.090;2024-01-25T01:50:18;101786.94;;;7.40
78225;BMP280;67498;53.650;10.090;2024-01-25T01:52:43;101779.47;;;7.38
78225;BMP280;67498;53.650;10.090;2024-01-25T01:55:09;101789.19;;;7.41
78225;BMP280;67498;53.650;10.090;2024-01-25T01:57:36;101777.72;;;7.42
78225;BMP280;67498;53.650;10.090;2024-01-25T02:00:03;101787.75;;;7.44
78225;BMP280;67498;53.650;10.090;2024-01-25T02:02:29;101788.84;;;7.43
78225;BMP280;67498;53.650;10.090;2024-01-25T02:04:55;101799.56;;;7.41
78225;BMP280;67498;53.650;10.090;2024-01-25T02:07:20;101792.94;;;7.44
78225;BMP280;67498;53.650;10.090;2024-01-25T02:09:45;101805.59;;;7.45
78225;BMP280;67498;53.650;10.090;2024-01-25T02:12:15;101797.38;;;7.43
78225;BMP280;67498;53.650;10.090;2024-01-25T02:14:41;101810.06;;;7.45
78225;BMP280;67498;53.650;10.090;2024-01-25T02:17:06;101820.50;;;7.48
78225;BMP280;67498;53.650;10.090;2024-01-25T02:19:31;101816.84;;;7.49
78225;BMP280;67498;53.650;10.090;2024-01-25T02:21:57;101822.03;;;7.49
78225;BMP280;67498;53.650;10.090;2024-01-25T02:24:23;101815.31;;;7.48
78225;BMP280;67498;53.650;10.090;2024-01-25T02:26:49;101812.72;;;7.48
78225;BMP280;67498;53.650;10.090;2024-01-25T02:29:14;101813.84;;;7.51
78225;BMP280;67498;53.650;10.090;2024-01-25T02:31:39;101816.44;;;7.51
78225;BMP280;67498;53.650;10.090;2024-01-25T02:34:05;101812.38;;;7.50
78225;BMP280;67498;53.650;10.090;2024-01-25T02:36:30;101817.59;;;7.50
78225;BMP280;67498;53.650;10.090;2024-01-25T02:38:55;101814.25;;;7.49
78225;BMP280;67498;53.650;10.090;2024-01-25T02:41:20;101809.03;;;7.49
78225;BMP280;67498;53.650;10.090;2024-01-25T02:43:46;101823.50;;;7.50
78225;BMP280;67498;53.650;10.090;2024-01-25T02:46:11;101827.22;;;7.49
78225;BMP280;67498;53.650;10.090;2024-01-25T02:48:36;101828.31;;;7.48
78225;BMP280;67498;53.650;10.090;2024-01-25T02:51:01;101821.94;;;7.46
78225;BMP280;67498;53.650;10.090;2024-01-25T02:53:27;101826.06;;;7.47
78225;BMP280;67498;53.650;10.090;2024-01-25T02:55:52;101837.63;;;7.49
78225;BMP280;67498;53.650;10.090;2024-01-25T02:58:17;101846.75;;;7.43
78225;BMP280;67498;53.650;10.090;2024-01-25T03:00:42;101853.91;;;7.46
78225;BMP280;67498;53.650;10.090;2024-01-25T03:03:08;101847.50;;;7.44
78225;BMP280;67498;53.650;10.090;2024-01-25T03:05:33;101860.16;;;7.45
78225;BMP280;67498;53.650;10.090;2024-01-25T03:08:00;101864.63;;;7.45
78225;BMP280;67498;53.650;10.090;2024-01-25T03:10:25;101846.00;;;7.43
78225;BMP280;67498;53.650;10.090;2024-01-25T03:12:50;101833.34;;;7.41
78225;BMP280;67498;53.650;10.090;2024-01-25T03:15:15;101852.31;;;7.42
78225;BMP280;67498;53.650;10.090;2024-01-25T03:17:41;101852.22;;;7.38
78225;BMP280;67498;53.650;10.090;2024-01-25T03:20:06;101856.34;;;7.39
78225;BMP280;67498;53.650;10.090;2024-01-25T03:22:32;101860.44;;;7.40
78225;BMP280;67498;53.650;10.090;2024-01-25T03:24:57;101870.06;;;7.40
78225;BMP280;67498;53.650;10.090;2024-01-25T03:27:22;101873.75;;;7.39
78225;BMP280;67498;53.650;10.090;2024-01-25T03:29:48;101877.13;;;7.39
78225;BMP280;67498;53.650;10.090;2024-01-25T03:32:13;101872.66;;;7.40
78225;BMP280;67498;53.650;10.090;2024-01-25T03:34:38;101895.69;;;7.41
78225;BMP280;67498;53.650;10.090;2024-01-25T03:37:04;101882.72;;;7.41
78225;BMP280;67498;53.650;10.090;2024-01-25T03:39:29;101890.09;;;7.39
78225;BMP280;67498;53.650;10.090;2024-01-25T03:41:54;101899.72;;;7.39
78225;BMP280;67498;53.650;10.090;2024-01-25T03:44:19;101893.06;;;7.38
78225;BMP280;67498;53.650;10.090;2024-01-25T03:46:45;101907.13;;;7.37
78225;BMP280;67498;53.650;10.090;2024-01-25T03:49:11;101906.38;;;7.36
78225;BMP280;67498;53.650;10.090;2024-01-25T03:51:36;101917.13;;;7.35
78225;BMP280;67498;53.650;10.090;2024-01-25T03:54:02;101928.25;;;7.35
78225;BMP280;67498;53.650;10.090;2024-01-25T03:56:27;101933.03;;;7.33
78225;BMP280;67498;53.650;10.090;2024-01-25T03:58:53;101941.25;;;7.35
78225;BMP280;67498;53.650;10.090;2024-01-25T04:01:18;101929.59;;;7.29
78225;BMP280;67498;53.650;10.090;2024-01-25T04:03:43;101936.38;;;7.34
78225;BMP280;67498;53.650;10.090;2024-01-25T04:06:08;101940.50;;;7.35
78225;BMP280;67498;53.650;10.090;2024-01-25T04:08:34;101942.31;;;7.34
78225;BMP280;67498;53.650;10.090;2024-01-25T04:10:59;101931.53;;;7.32
78225;BMP280;67498;53.650;10.090;2024-01-25T04:13:24;101940.81;;;7.33
78225;BMP280;67498;53.650;10.090;2024-01-25T04:15:50;101943.00;;;7.31
78225;BMP280;67498;53.650;10.090;2024-01-25T04:18:15;101949.63;;;7.28
78225;BMP280;67498;53.650;10.090;2024-01-25T04:20:41;101947.44;;;7.31
78225;BMP280;67498;53.650;10.090;2024-01-25T04:23:06;101956.66;;;7.28
78225;BMP280;67498;53.650;10.090;2024-01-25T04:25:32;101959.25;;;7.28
78225;BMP280;67498;53.650;10.090;2024-01-25T04:27:57;101960.00;;;7.28
78225;BMP280;67498;53.650;10.090;2024-01-25T04:30:22;101968.91;;;7.27
78225;BMP280;67498;53.650;10.090;2024-01-25T04:32:47;101969.97;;;7.26
78225;BMP280;67498;53.650;10.090;2024-01-25T04:35:13;101972.94;;;7.25
78225;BMP280;67498;53.650;10.090;2024-01-25T04:37:38;101972.16;;;7.24
78225;BMP280;67498;53.650;10.090;2024-01-25T04:40:04;101969.94;;;7.23
78225;BMP280;67498;53.650;10.090;2024-01-25T04:42:30;101980.75;;;7.25
78225;BMP280;67498;53.650;10.090;2024-01-25T04:44:55;101971.75;;;7.22
78225;BMP280;67498;53.650;10.090;2024-01-25T04:47:21;101983.34;;;7.25
78225;BMP280;67498;53.650;10.090;2024-01-25T04:49:47;101980.31;;;7.23
78225;BMP280;67498;53.650;10.090;2024-01-25T04:52:12;101985.50;;;7.23
78225;BMP280;67498;53.650;10.090;2024-01-25T04:54:37;101993.63;;;7.21
78225;BMP280;67498;53.650;10.090;2024-01-25T04:57:03;101988.00;;;7.19
78225;BMP280;67498;53.650;10.090;2024-01-25T04:59:31;101993.94;;;7.20
78225;BMP280;67498;53.650;10.090;2024-01-25T05:01:57;102001.00;;;7.19
78225;BMP280;67498;53.650;10.090;2024-01-25T05:04:23;101986.16;;;7.20
78225;BMP280;67498;53.650;10.090;2024-01-25T05:06:48;101996.53;;;7.20
78225;BMP280;67498;53.650;10.090;2024-01-25T05:09:13;101997.66;;;7.19
78225;BMP280;67498;53.650;10.090;2024-01-25T05:11:39;101993.88;;;7.16
78225;BMP280;67498;53.650;10.090;2024-01-25T05:14:05;101997.16;;;7.13
78225;BMP280;67498;53.650;10.090;2024-01-25T05:16:30;102003.09;;;7.14
78225;BMP280;67498;53.650;10.090;2024-01-25T05:18:56;102012.75;;;7.13
78225;BMP280;67498;53.650;10.090;2024-01-25T05:21:21;102016.41;;;7.12
78225;BMP280;67498;53.650;10.090;2024-01-25T05:23:46;102009.72;;;7.11
78225;BMP280;67498;53.650;10.090;2024-01-25T05:26:12;102023.03;;;7.10
78225;BMP280;67498;53.650;10.090;2024-01-25T05:28:37;102023.78;;;7.10
78225;BMP280;67498;53.650;10.090;2024-01-25T05:31:03;102023.78;;;7.10
78225;BMP280;67498;53.650;10.090;2024-01-25T05:33:28;102032.66;;;7.09
78225;BMP280;67498;53.650;10.090;2024-01-25T05:35:53;102024.13;;;7.09
78225;BMP280;67498;53.650;10.090;2024-01-25T05:38:19;102028.22;;;7.10
78225;BMP280;67498;53.650;10.090;2024-01-25T05:40:44;102023.34;;;7.08
78225;BMP280;67498;53.650;10.090;2024-01-25T05:43:09;102025.94;;;7.08
78225;BMP280;67498;53.650;10.090;2024-01-25T05:45:34;102021.53;;;7.09
78225;BMP280;67498;53.650;10.090;2024-01-25T05:48:00;102033.72;;;7.08
78225;BMP280;67498;53.650;10.090;2024-01-25T05:50:25;102040.47;;;7.09
78225;BMP280;67498;53.650;10.090;2024-01-25T05:52:50;102037.44;;;7.07
78225;BMP280;67498;53.650;10.090;2024-01-25T05:55:16;102045.53;;;7.05
78225;BMP280;67498;53.650;10.090;2024-01-25T05:57:42;102043.72;;;7.06
78225;BMP280;67498;53.650;10.090;2024-01-25T06:00:08;102058.19;;;7.07
78225;BMP280;67498;53.650;10.090;2024-01-25T06:02:33;102056.72;;;7.06
78225;BMP280;67498;53.650;10.090;2024-01-25T06:04:59;102062.31;;;7.08
78225;BMP280;67498;53.650;10.090;2024-01-25T06:07:25;102057.44;;;7.06
78225;BMP280;67498;53.650;10.090;2024-01-25T06:09:50;102060.81;;;7.07
78225;BMP280;67498;53.650;10.090;2024-01-25T06:12:15;102069.69;;;7.06
78225;BMP280;67498;53.650;10.090;2024-01-25T06:14:41;102069.69;;;7.06
78225;BMP280;67498;53.650;10.090;2024-01-25T06:17:07;102078.22;;;7.06
78225;BMP280;67498;53.650;10.090;2024-01-25T06:19:32;102083.84;;;7.09
78225;BMP280;67498;53.650;10.090;2024-01-25T06:21:59;102079.72;;;7.07
78225;BMP280;67498;53.650;10.090;2024-01-25T06:24:24;102084.91;;;7.07
78225;BMP280;67498;53.650;10.090;2024-01-25T06:26:49;102081.09;;;7.01
78225;BMP280;67498;53.650;10.090;2024-01-25T06:29:15;102087.00;;;7.02
78225;BMP280;67498;53.650;10.090;2024-01-25T06:31:43;102079.22;;;7.02
78225;BMP280;67498;53.650;10.090;2024-01-25T06:34:09;102093.28;;;7.01
78225;BMP280;67498;53.650;10.090;2024-01-25T06:36:34;102092.19;;;7.02
78225;BMP280;67498;53.650;10.090;2024-01-25T06:38:59;102096.97;;;7.00
78225;BMP280;67498;53.650;10.090;2024-01-25T06:41:25;102079.56;;;7.00
78225;BMP280;67498;53.650;10.090;2024-01-25T06:43:50;102100.69;;;6.99
78225;BMP280;67498;53.650;10.090;2024-01-25T06:46:15;102115.16;;;7.00
78225;BMP280;67498;53.650;10.090;2024-01-25T06:48:40;102106.94;;;6.98
78225;BMP280;67498;53.650;10.090;2024-01-25T06:51:06;102111.06;;;6.99
78225;BMP280;67498;53.650;10.090;2024-01-25T06:53:31;102105.44;;;6.97
78225;BMP280;67498;53.650;10.090;2024-01-25T06:55:57;102106.84;;;6.94
78225;BMP280;67498;53.650;10.090;2024-01-25T06:58:22;102124.38;;;6.97
78225;BMP280;67498;53.650;10.090;2024-01-25T07:00:48;102126.53;;;6.95
78225;BMP280;67498;53.650;10.090;2024-01-25T07:03:13;102133.88;;;6.93
78225;BMP280;67498;53.650;10.090;2024-01-25T07:05:40;102133.06;;;6.89
78225;BMP280;67498;53.650;10.090;2024-01-25T07:08:06;102149.28;;;6.86
78225;BMP280;67498;53.650;10.090;2024-01-25T07:10:34;102151.34;;;6.80
78225;BMP280;67498;53.650;10.090;2024-01-25T07:12:59;102161.97;;;6.75
78225;BMP280;67498;53.650;10.090;2024-01-25T07:15:24;102171.94;;;6.73
78225;BMP280;67498;53.650;10.090;2024-01-25T07:17:50;102184.16;;;6.73
78225;BMP280;67498;53.650;10.090;2024-01-25T07:20:15;102188.66;;;6.76
78225;BMP280;67498;53.650;10.090;2024-01-25T07:22:40;102199.03;;;6.76
78225;BMP280;67498;53.650;10.090;2024-01-25T07:25:06;102196.97;;;6.81
78225;BMP280;67498;53.650;10.090;2024-01-25T07:27:31;102197.75;;;6.82
78225;BMP280;67498;53.650;10.090;2024-01-25T07:29:56;102194.81;;;6.83
78225;BMP280;67498;53.650;10.090;2024-01-25T07:32:22;102198.59;;;6.86
78225;BMP280;67498;53.650;10.090;2024-01-25T07:34:49;102196.44;;;6.88
78225;BMP280;67498;53.650;10.090;2024-01-25T07:37:14;102189.63;;;6.83
78225;BMP280;67498;53.650;10.090;2024-01-25T07:39:41;102188.13;;;6.82
78225;BMP280;67498;53.650;10.090;2024-01-25T07:42:06;102192.13;;;6.80
78225;BMP280;67498;53.650;10.090;2024-01-25T07:44:31;102190.16;;;6.77
78225;BMP280;67498;53.650;10.090;2024-01-25T07:46:57;102198.72;;;6.77
78225;BMP280;67498;53.650;10.090;2024-01-25T07:49:22;102207.25;;;6.78
78225;BMP280;67498;53.650;10.090;2024-01-25T07:51:47;102196.13;;;6.77
78225;BMP280;67498;53.650;10.090;2024-01-25T07:54:13;102201.75;;;6.79
78225;BMP280;67498;53.650;10.090;2024-01-25T07:56:39;102203.34;;;6.84
78225;BMP280;67498;53.650;10.090;2024-01-25T07:59:04;102209.75;;;6.87
78225;BMP280;67498;53.650;10.090;2024-01-25T08:01:30;102207.47;;;6.85
78225;BMP280;67498;53.650;10.090;2024-01-25T08:03:55;102210.84;;;6.86
78225;BMP280;67498;53.650;10.090;2024-01-25T08:06:21;102207.97;;;6.91
78225;BMP280;67498;53.650;10.090;2024-01-25T08:08:46;102211.34;;;6.91
78225;BMP280;67498;53.650;10.090;2024-01-25T08:11:11;102216.66;;;6.95
78225;BMP280;67498;53.650;10.090;2024-01-25T08:13:36;102225.19;;;6.95
78225;BMP280;67498;53.650;10.090;2024-01-25T08:16:02;102234.91;;;6.98
78225;BMP280;67498;53.650;10.090;2024-01-25T08:18:27;102236.00;;;6.97
78225;BMP280;67498;53.650;10.090;2024-01-25T08:20:54;102239.78;;;7.00
78225;BMP280;67498;53.650;10.090;2024-01-25T08:23:21;102231.56;;;6.98
78225;BMP280;67498;53.650;10.090;2024-01-25T08:25:46;102235.69;;;6.99
78225;BMP280;67498;53.650;10.090;2024-01-25T08:28:11;102244.69;;;7.01
78225;BMP280;67498;53.650;10.090;2024-01-25T08:30:36;102236.19;;;7.04
78225;BMP280;67498;53.650;10.090;2024-01-25T08:33:02;102233.91;;;7.03
78225;BMP280;67498;53.650;10.090;2024-01-25T08:35:27;102239.22;;;7.06
78225;BMP280;67498;53.650;10.090;2024-01-25T08:37:52;102243.69;;;7.06
78225;BMP280;67498;53.650;10.090;2024-01-25T08:40:18;102233.59;;;7.04
78225;BMP280;67498;53.650;10.090;2024-01-25T08:42:43;102229.59;;;7.07
78225;BMP280;67498;53.650;10.090;2024-01-25T08:45:08;102229.72;;;7.11
78225;BMP280;67498;53.650;10.090;2024-01-25T08:47:37;102240.50;;;7.13
78225;BMP280;67498;53.650;10.090;2024-01-25T08:50:02;102239.84;;;7.16
78225;BMP280;67498;53.650;10.090;2024-01-25T08:52:28;102228.81;;;7.19
78225;BMP280;67498;53.650;10.090;2024-01-25T08:54:54;102217.31;;;7.20
78225;BMP280;67498;53.650;10.090;2024-01-25T08:57:19;102229.75;;;7.26
78225;BMP280;67498;53.650;10.090;2024-01-25T08:59:45;102236.06;;;7.25
78225;BMP280;67498;53.650;10.090;2024-01-25T09:02:10;102241.66;;;7.27
78225;BMP280;67498;53.650;10.090;2024-01-25T09:04:35;102242.50;;;7.32
78225;BMP280;67498;53.650;10.090;2024-01-25T09:07:02;102254.19;;;7.38
78225;BMP280;67498;53.650;10.090;2024-01-25T09:09:27;102246.06;;;7.39
78225;BMP280;67498;53.650;10.090;2024-01-25T09:11:53;102255.88;;;7.46
78225;BMP280;67498;53.650;10.090;2024-01-25T09:14:19;102256.75;;;7.50
78225;BMP280;67498;53.650;10.090;2024-01-25T09:16:44;102257.47;;;7.50
78225;BMP280;67498;53.650;10.090;2024-01-25T09:19:10;102264.19;;;7.51
78225;BMP280;67498;53.650;10.090;2024-01-25T09:21:38;102266.22;;;7.58
78225;BMP280;67498;53.650;10.090;2024-01-25T09:24:04;102275.22;;;7.61
78225;BMP280;67498;53.650;10.090;2024-01-25T09:26:29;102268.91;;;7.62
78225;BMP280;67498;53.650;10.090;2024-01-25T09:28:54;102273.44;;;7.65
78225;BMP280;67498;53.650;10.090;2024-01-25T09:31:19;102287.97;;;7.66
78225;BMP280;67498;53.650;10.090;2024-01-25T09:33:45;102287.63;;;7.67
78225;BMP280;67498;53.650;10.090;2024-01-25T09:36:10;102279.41;;;7.65
78225;BMP280;67498;53.650;10.090;2024-01-25T09:38:35;102287.75;;;7.71
78225;BMP280;67498;53.650;10.090;2024-01-25T09:41:00;102292.69;;;7.76
78225;BMP280;67498;53.650;10.090;2024-01-25T09:43:26;102308.59;;;7.74
78225;BMP280;67498;53.650;10.090;2024-01-25T09:45:53;102310.56;;;7.78
78225;BMP280;67498;53.650;10.090;2024-01-25T09:48:22;102317.59;;;7.77
78225;BMP280;67498;53.650;10.090;2024-01-25T09:50:48;102314.22;;;7.77
78225;BMP280;67498;53.650;10.090;2024-01-25T09:53:23;102310.56;;;7.78
78225;BMP280;67498;53.650;10.090;2024-01-25T09:58:37;102320.19;;;7.77
78225;BMP280;67498;53.650;10.090;2024-01-25T10:01:03;102327.59;;;7.75
78225;BMP280;67498;53.650;10.090;2024-01-25T10:03:28;102338.19;;;7.82
78225;BMP280;67498;53.650;10.090;2024-01-25T10:05:54;102331.44;;;7.81
78225;BMP280;67498;53.650;10.090;2024-01-25T10:08:21;102326.25;;;7.81
78225;BMP280;67498;53.650;10.090;2024-01-25T10:10:49;102330.78;;;7.84
78225;BMP280;67498;53.650;10.090;2024-01-25T10:13:14;102322.63;;;7.86
78225;BMP280;67498;53.650;10.090;2024-01-25T10:15:39;102334.66;;;7.90
78225;BMP280;67498;53.650;10.090;2024-01-25T10:18:07;102341.72;;;7.90
78225;BMP280;67498;53.650;10.090;2024-01-25T10:20:38;102347.22;;;7.88
78225;BMP280;67498;53.650;10.090;2024-01-25T10:23:03;102350.25;;;7.90
78225;BMP280;67498;53.650;10.090;2024-01-25T10:25:29;102344.63;;;7.88
78225;BMP280;67498;53.650;10.090;2024-01-25T10:27:54;102355.97;;;7.96
78225;BMP280;67498;53.650;10.090;2024-01-25T10:30:20;102355.41;;;8.03
78225;BMP280;67498;53.650;10.090;2024-01-25T10:32:46;102365.81;;;8.03
78225;BMP280;67498;53.650;10.090;2024-01-25T10:35:12;102362.91;;;8.04
78225;BMP280;67498;53.650;10.090;2024-01-25T10:37:38;102368.16;;;8.08
78225;BMP280;67498;53.650;10.090;2024-01-25T10:40:05;102367.41;;;8.07
78225;BMP280;67498;53.650;10.090;2024-01-25T10:42:32;102349.94;;;8.08
78225;BMP280;67498;53.650;10.090;2024-01-25T10:44:58;102356.25;;;8.07
78225;BMP280;67498;53.650;10.090;2024-01-25T10:47:23;102357.00;;;8.07
78225;BMP280;67498;53.650;10.090;2024-01-25T10:49:49;102353.72;;;8.10
78225;BMP280;67498;53.650;10.090;2024-01-25T10:52:15;102354.06;;;8.09
78225;BMP280;67498;53.650;10.090;2024-01-25T10:54:40;102357.88;;;8.11
78225;BMP280;67498;53.650;10.090;2024-01-25T10:57:06;102358.69;;;8.15
78225;BMP280;67498;53.650;10.090;2024-01-25T10:59:32;102366.28;;;8.20
78225;BMP280;67498;53.650;10.090;2024-01-25T11:01:57;102365.59;;;8.24
78225;BMP280;67498;53.650;10.090;2024-01-25T11:04:23;102360.41;;;8.24
78225;BMP280;67498;53.650;10.090;2024-01-25T11:06:48;102361.97;;;8.28
78225;BMP280;67498;53.650;10.090;2024-01-25T11:09:21;102353.44;;;8.28
78225;BMP280;67498;53.650;10.090;2024-01-25T11:11:49;102351.03;;;8.35
78225;BMP280;67498;53.650;10.090;2024-01-25T11:14:14;102354.03;;;8.37
78225;BMP280;67498;53.650;10.090;2024-01-25T11:16:43;102351.03;;;8.35
78225;BMP280;67498;53.650;10.090;2024-01-25T11:19:16;102353.69;;;8.38
78225;BMP280;67498;53.650;10.090;2024-01-25T11:21:45;102359.00;;;8.42
78225;BMP280;67498;53.650;10.090;2024-01-25T11:24:22;102355.94;;;8.40
78225;BMP280;67498;53.650;10.090;2024-01-25T11:26:47;102357.78;;;8.39
78225;BMP280;67498;53.650;10.090;2024-01-25T11:29:14;102368.28;;;8.43
78225;BMP280;67498;53.650;10.090;2024-01-25T11:31:42;102359.38;;;8.44
78225;BMP280;67498;53.650;10.090;2024-01-25T11:34:10;102364.59;;;8.44
78225;BMP280;67498;53.650;10.090;2024-01-25T11:36:36;102373.06;;;8.41
78225;BMP280;67498;53.650;10.090;2024-01-25T11:39:01;102366.13;;;8.45
78225;BMP280;67498;53.650;10.090;2024-01-25T11:41:26;102375.50;;;8.50
78225;BMP280;67498;53.650;10.090;2024-01-25T11:43:52;102372.56;;;8.51
78225;BMP280;67498;53.650;10.090;2024-01-25T11:46:18;102367.16;;;8.56
78225;BMP280;67498;53.650;10.090;2024-01-25T11:48:43;102375.00;;;8.60
78225;BMP280;67498;53.650;10.090;2024-01-25T11:51:09;102367.31;;;8.63
78225;BMP280;67498;53.650;10.090;2024-01-25T11:53:36;102365.88;;;8.66
78225;BMP280;67498;53.650;10.090;2024-01-25T11:56:02;102361.41;;;8.66
78225;BMP280;67498;53.650;10.090;2024-01-25T11:58:27;102368.81;;;8.64
78225;BMP280;67498;53.650;10.090;2024-01-25T12:00:53;102355.69;;;8.61
78225;BMP280;67498;53.650;10.090;2024-01-25T12:03:20;102360.56;;;8.62
78225;BMP280;67498;53.650;10.090;2024-01-25T12:05:45;102363.91;;;8.63
78225;BMP280;67498;53.650;10.090;2024-01-25T12:08:13;102353.06;;;8.61
78225;BMP280;67498;53.650;10.090;2024-01-25T12:10:39;102370.56;;;8.60
78225;BMP280;67498;53.650;10.090;2024-01-25T12:13:07;102365.59;;;8.55
78225;BMP280;67498;53.650;10.090;2024-01-25T12:15:34;102368.53;;;8.54
78225;BMP280;67498;53.650;10.090;2024-01-25T12:17:59;102351.72;;;8.51
78225;BMP280;67498;53.650;10.090;2024-01-25T12:20:26;102356.13;;;8.47
78225;BMP280;67498;53.650;10.090;2024-01-25T12:22:51;102354.19;;;8.44
78225;BMP280;67498;53.650;10.090;2024-01-25T12:25:17;102367.88;;;8.41
78225;BMP280;67498;53.650;10.090;2024-01-25T12:27:42;102371.50;;;8.36
78225;BMP280;67498;53.650;10.090;2024-01-25T12:30:10;102378.44;;;8.32
78225;BMP280;67498;53.650;10.090;2024-01-25T12:32:36;102381.38;;;8.31
78225;BMP280;67498;53.650;10.090;2024-01-25T12:35:01;102373.41;;;8.24
78225;BMP280;67498;53.650;10.090;2024-01-25T12:37:27;102377.09;;;8.23
78225;BMP280;67498;53.650;10.090;2024-01-25T12:39:53;102379.28;;;8.20
78225;BMP280;67498;53.650;10.090;2024-01-25T12:42:19;102378.94;;;8.22
78225;BMP280;67498;53.650;10.090;2024-01-25T12:44:45;102378.19;;;8.21
78225;BMP280;67498;53.650;10.090;2024-01-25T12:47:13;102372.53;;;8.19
78225;BMP280;67498;53.650;10.090;2024-01-25T12:49:40;102380.66;;;8.18
78225;BMP280;67498;53.650;10.090;2024-01-25T12:52:07;102371.38;;;8.17
78225;BMP280;67498;53.650;10.090;2024-01-25T12:54:33;102372.88;;;8.18
78225;BMP280;67498;53.650;10.090;2024-01-25T12:56:58;102372.13;;;8.17
78225;BMP280;67498;53.650;10.090;2024-01-25T12:59:23;102377.31;;;8.17
78225;BMP280;67498;53.650;10.090;2024-01-25T13:01:48;102381.03;;;8.16
78225;BMP280;67498;53.650;10.090;2024-01-25T13:04:14;102385.50;;;8.16
78225;BMP280;67498;53.650;10.090;2024-01-25T13:06:39;102393.31;;;8.16
78225;BMP280;67498;53.650;10.090;2024-01-25T13:09:04;102386.25;;;8.16
78225;BMP280;67498;53.650;10.090;2024-01-25T13:11:30;102385.13;;;8.17
78225;BMP280;67498;53.650;10.090;2024-01-25T13:13:55;102375.09;;;8.16
78225;BMP280;67498;53.650;10.090;2024-01-25T13:16:20;102376.50;;;8.13
78225;BMP280;67498;53.650;10.090;2024-01-25T13:18:46;102383.66;;;8.16
78225;BMP280;67498;53.650;10.090;2024-01-25T13:21:11;102378.00;;;8.14
78225;BMP280;67498;53.650;10.090;2024-01-25T13:23:36;102376.91;;;8.15
78225;BMP280;67498;53.650;10.090;2024-01-25T13:26:01;102378.44;;;8.16
78225;BMP280;67498;53.650;10.090;2024-01-25T13:28:27;102376.59;;;8.17
78225;BMP280;67498;53.650;10.090;2024-01-25T13:30:52;102378.06;;;8.18
78225;BMP280;67498;53.650;10.090;2024-01-25T13:33:19;102378.84;;;8.18
78225;BMP280;67498;53.650;10.090;2024-01-25T13:35:44;102379.50;;;8.15
78225;BMP280;67498;53.650;10.090;2024-01-25T13:38:09;102379.50;;;8.15
78225;BMP280;67498;53.650;10.090;2024-01-25T13:40:39;102387.66;;;8.14
78225;BMP280;67498;53.650;10.090;2024-01-25T13:43:04;102385.81;;;8.14
78225;BMP280;67498;53.650;10.090;2024-01-25T13:45:30;102377.69;;;8.16
78225;BMP280;67498;53.650;10.090;2024-01-25T13:47:55;102382.91;;;8.16
78225;BMP280;67498;53.650;10.090;2024-01-25T13:50:20;102378.00;;;8.14